createdAt,value
2023-06-17T00:00:35.037Z,17.64
2023-06-17T00:03:24.991Z,17.57
2023-06-17T00:06:13.704Z,17.56
2023-06-17T00:09:02.261Z,17.51
2023-06-17T00:11:52.526Z,17.27
2023-06-17T00:14:41.923Z,17.51
2023-06-17T00:17:31.995Z,17.35
2023-06-17T00:20:24.723Z,17.35
2023-06-17T00:23:13.371Z,17.37
2023-06-17T00:26:01.876Z,17.38
2023-06-17T00:28:50.418Z,17.31
2023-06-17T00:31:39.251Z,17.27
2023-06-17T00:34:27.882Z,17.20
2023-06-17T00:37:18.020Z,17.27
2023-06-17T00:40:09.638Z,17.20
2023-06-17T00:42:58.163Z,17.21
2023-06-17T00:45:46.765Z,17.20
2023-06-17T00:48:35.417Z,17.26
2023-06-17T00:51:25.934Z,17.05
2023-06-17T00:54:16.882Z,17.12
2023-06-17T00:57:06.435Z,17.04
2023-06-17T00:59:55.157Z,16.93
2023-06-17T01:02:46.046Z,16.92
2023-06-17T01:05:35.880Z,16.85
2023-06-17T01:08:30.008Z,16.73
2023-06-17T01:11:21.713Z,16.76
2023-06-17T01:14:11.659Z,16.74
2023-06-17T01:17:00.461Z,16.73
2023-06-17T01:19:49.998Z,16.56
2023-06-17T01:22:38.667Z,16.51
2023-06-17T01:25:31.404Z,16.50
2023-06-17T01:28:21.525Z,16.45
2023-06-17T01:31:13.845Z,16.45
2023-06-17T01:34:04.226Z,16.34
2023-06-17T01:36:53.850Z,16.33
2023-06-17T01:39:45.138Z,16.28
2023-06-17T01:42:37.739Z,16.19
2023-06-17T01:45:26.998Z,16.12
2023-06-17T01:48:15.549Z,16.06
2023-06-17T01:51:06.312Z,15.64
2023-06-17T01:53:55.097Z,16.04
2023-06-17T01:56:43.848Z,16.03
2023-06-17T01:59:34.125Z,15.98
2023-06-17T02:02:22.644Z,15.84
2023-06-17T02:05:11.455Z,15.67
2023-06-17T02:08:00.997Z,15.52
2023-06-17T02:10:49.505Z,15.44
2023-06-17T02:13:38.019Z,15.33
2023-06-17T02:16:28.213Z,15.25
2023-06-17T02:19:17.716Z,15.26
2023-06-17T02:22:06.526Z,15.21
2023-06-17T02:24:55.184Z,15.05
2023-06-17T02:27:43.967Z,15.08
2023-06-17T02:30:32.486Z,15.24
2023-06-17T02:33:22.392Z,14.84
2023-06-17T02:36:12.953Z,14.85
2023-06-17T02:39:01.739Z,14.99
2023-06-17T02:41:50.463Z,14.86
2023-06-17T02:44:38.898Z,15.00
2023-06-17T02:47:27.691Z,14.91
2023-06-17T02:50:22.487Z,14.95
2023-06-17T02:53:11.721Z,14.92
2023-06-17T02:56:00.507Z,14.78
2023-06-17T02:58:49.300Z,14.82
2023-06-17T03:01:40.288Z,14.72
2023-06-17T03:04:36.159Z,14.72
2023-06-17T03:07:26.569Z,14.80
2023-06-17T03:10:16.611Z,14.37
2023-06-17T03:13:05.182Z,14.58
2023-06-17T03:15:54.504Z,14.49
2023-06-17T03:18:43.275Z,14.35
2023-06-17T03:21:32.128Z,14.31
2023-06-17T03:24:22.462Z,14.12
2023-06-17T03:27:11.323Z,14.22
2023-06-17T03:29:59.818Z,14.26
2023-06-17T03:32:50.651Z,14.33
2023-06-17T03:35:39.382Z,14.28
2023-06-17T03:38:27.841Z,14.27
2023-06-17T03:41:17.819Z,14.25
2023-06-17T03:44:06.532Z,14.07
2023-06-17T03:46:55.029Z,14.04
2023-06-17T03:49:45.382Z,13.90
2023-06-17T03:52:33.855Z,14.06
2023-06-17T03:55:23.631Z,14.15
2023-06-17T03:58:15.927Z,14.12
2023-06-17T04:01:04.403Z,14.18
2023-06-17T04:03:53.175Z,14.26
2023-06-17T04:06:41.792Z,14.30
2023-06-17T04:09:30.618Z,14.30
2023-06-17T04:12:19.090Z,14.27
2023-06-17T04:15:10.144Z,14.43
2023-06-17T04:17:58.730Z,14.42
2023-06-17T04:20:47.263Z,14.47
2023-06-17T04:23:35.761Z,14.54
2023-06-17T04:26:24.505Z,14.54
2023-06-17T04:29:12.997Z,14.61
2023-06-17T04:32:03.629Z,14.68
2023-06-17T04:34:52.522Z,14.73
2023-06-17T04:37:41.545Z,14.89
2023-06-17T04:40:30.014Z,14.99
2023-06-17T04:43:18.814Z,15.01
2023-06-17T04:46:09.210Z,15.02
2023-06-17T04:48:59.852Z,15.07
2023-06-17T04:51:49.602Z,15.12
2023-06-17T04:54:38.362Z,15.18
2023-06-17T04:57:27.119Z,15.34
2023-06-17T05:00:19.323Z,15.38
2023-06-17T05:03:09.320Z,15.37
2023-06-17T05:05:59.297Z,15.51
2023-06-17T05:08:47.816Z,15.58
2023-06-17T05:11:36.344Z,15.62
2023-06-17T05:14:25.090Z,15.87
2023-06-17T05:17:14.138Z,15.89
2023-06-17T05:20:02.686Z,15.98
2023-06-17T05:22:52.630Z,16.13
2023-06-17T05:25:41.203Z,16.32
2023-06-17T05:28:29.896Z,16.19
2023-06-17T05:31:18.562Z,16.43
2023-06-17T05:34:07.106Z,16.69
2023-06-17T05:36:55.614Z,16.76
2023-06-17T05:39:45.729Z,16.86
2023-06-17T05:42:34.224Z,16.93
2023-06-17T05:45:22.746Z,17.16
2023-06-17T05:48:11.430Z,17.37
2023-06-17T05:51:00.007Z,17.50
2023-06-17T05:53:48.531Z,17.62
2023-06-17T05:56:38.464Z,17.73
2023-06-17T05:59:29.937Z,17.91
2023-06-17T06:02:18.433Z,18.16
2023-06-17T06:05:08.267Z,18.33
2023-06-17T06:07:56.874Z,18.52
2023-06-17T06:10:45.722Z,18.64
2023-06-17T06:13:35.851Z,18.94
2023-06-17T06:16:24.452Z,19.06
2023-06-17T06:19:13.413Z,19.19
2023-06-17T06:22:01.979Z,19.38
2023-06-17T06:24:50.478Z,19.52
2023-06-17T06:27:38.983Z,19.52
2023-06-17T06:30:28.857Z,19.69
2023-06-17T06:33:17.411Z,19.90
2023-06-17T06:36:06.571Z,20.07
2023-06-17T06:38:55.104Z,20.23
2023-06-17T06:41:43.624Z,20.42
2023-06-17T06:44:32.169Z,20.60
2023-06-17T06:47:22.028Z,20.84
2023-06-17T06:50:11.061Z,21.03
2023-06-17T06:52:59.554Z,21.20
2023-06-17T06:55:48.050Z,21.38
2023-06-17T06:58:37.078Z,21.66
2023-06-17T07:01:27.960Z,21.90
2023-06-17T07:04:18.056Z,22.07
2023-06-17T07:07:06.617Z,22.34
2023-06-17T07:09:55.401Z,22.51
2023-06-17T07:12:44.026Z,22.71
2023-06-17T07:15:32.805Z,22.79
2023-06-17T07:18:21.603Z,22.99
2023-06-17T07:21:11.917Z,23.20
2023-06-17T07:24:00.695Z,23.42
2023-06-17T07:26:49.341Z,23.64
2023-06-17T07:29:37.816Z,23.73
2023-06-17T07:32:26.413Z,23.96
2023-06-17T07:35:15.037Z,24.12
2023-06-17T07:38:05.012Z,24.28
2023-06-17T07:40:53.731Z,24.38
2023-06-17T07:43:42.354Z,24.58
2023-06-17T07:46:32.810Z,24.76
2023-06-17T07:49:21.471Z,24.88
2023-06-17T07:52:10.288Z,24.99
2023-06-17T07:55:00.342Z,25.09
2023-06-17T07:57:50.667Z,25.18
2023-06-17T08:00:39.231Z,25.58
2023-06-17T08:03:28.178Z,25.84
2023-06-17T08:06:17.484Z,26.02
2023-06-17T08:09:05.966Z,25.99
2023-06-17T08:11:55.828Z,26.21
2023-06-17T08:14:44.322Z,26.33
2023-06-17T08:17:32.893Z,26.61
2023-06-17T08:20:23.092Z,26.76
2023-06-17T08:23:12.088Z,26.98
2023-06-17T08:26:00.625Z,27.06
2023-06-17T08:28:51.159Z,26.97
2023-06-17T08:31:39.925Z,27.00
2023-06-17T08:34:33.304Z,27.16
2023-06-17T08:37:22.274Z,27.02
2023-06-17T08:40:14.104Z,27.16
2023-06-17T08:43:04.434Z,27.24
2023-06-17T08:45:55.151Z,27.31
2023-06-17T08:48:45.550Z,27.45
2023-06-17T08:51:34.146Z,27.55
2023-06-17T08:54:23.783Z,27.57
2023-06-17T08:57:14.180Z,27.79
2023-06-17T09:00:03.430Z,27.88
2023-06-17T09:02:54.382Z,27.89
2023-06-17T09:05:43.120Z,28.02
2023-06-17T09:08:32.132Z,28.19
2023-06-17T09:11:23.074Z,28.46
2023-06-17T09:14:11.577Z,28.61
2023-06-17T09:17:02.033Z,28.65
2023-06-17T09:19:52.372Z,28.72
2023-06-17T09:22:42.105Z,28.65
2023-06-17T09:25:30.676Z,28.77
2023-06-17T09:28:19.374Z,28.75
2023-06-17T09:31:07.871Z,28.83
2023-06-17T09:33:56.556Z,28.93
2023-06-17T09:36:47.673Z,28.98
2023-06-17T09:39:42.221Z,29.10
2023-06-17T09:42:32.245Z,28.86
2023-06-17T09:45:24.876Z,28.80
2023-06-17T09:48:13.649Z,29.12
2023-06-17T09:51:06.617Z,28.51
2023-06-17T09:53:56.710Z,28.98
2023-06-17T09:56:45.587Z,29.00
2023-06-17T09:59:34.058Z,29.19
2023-06-17T10:02:22.682Z,29.30
2023-06-17T10:05:12.230Z,29.54
2023-06-17T10:08:01.124Z,29.43
2023-06-17T10:10:51.209Z,29.67
2023-06-17T10:13:42.221Z,29.64
2023-06-17T10:16:34.797Z,29.70
2023-06-17T10:19:27.799Z,29.85
2023-06-17T10:22:18.108Z,29.87
2023-06-17T10:25:10.682Z,30.27
2023-06-17T10:28:01.961Z,29.99
2023-06-17T10:30:52.985Z,30.13
2023-06-17T10:33:47.636Z,29.36
2023-06-17T10:36:37.133Z,29.69
2023-06-17T10:39:25.852Z,29.57
2023-06-17T10:42:15.550Z,28.97
2023-06-17T10:45:13.683Z,28.56
2023-06-17T10:48:17.813Z,29.58
2023-06-17T10:51:12.118Z,29.79
2023-06-17T10:54:00.722Z,30.00
2023-06-17T10:56:51.903Z,30.45
2023-06-17T10:59:40.752Z,30.71
2023-06-17T11:02:32.361Z,30.95
2023-06-17T11:05:21.194Z,30.88
2023-06-17T11:08:09.674Z,30.18
2023-06-17T11:11:11.988Z,29.57
2023-06-17T11:14:00.473Z,29.23
2023-06-17T11:16:49.191Z,29.32
2023-06-17T11:19:39.164Z,29.84
2023-06-17T11:22:27.735Z,30.34
2023-06-17T11:25:17.979Z,30.64
2023-06-17T11:28:07.088Z,30.33
2023-06-17T11:30:56.941Z,29.90
2023-06-17T11:33:46.049Z,30.06
2023-06-17T11:36:36.923Z,30.28
2023-06-17T11:39:25.931Z,30.51
2023-06-17T11:42:14.588Z,30.80
2023-06-17T11:45:04.510Z,31.05
2023-06-17T11:47:53.135Z,31.16
2023-06-17T11:50:41.680Z,31.35
2023-06-17T11:53:33.600Z,31.48
2023-06-17T11:56:23.110Z,31.53
2023-06-17T11:59:13.304Z,31.62
2023-06-17T12:02:01.864Z,31.53
2023-06-17T12:04:51.445Z,31.39
2023-06-17T12:07:40.907Z,31.00
2023-06-17T12:10:30.908Z,31.68
2023-06-17T12:13:19.404Z,31.82
2023-06-17T12:16:11.440Z,31.80
2023-06-17T12:19:00.315Z,32.03
2023-06-17T12:21:48.942Z,31.82
2023-06-17T12:24:38.073Z,30.81
2023-06-17T12:27:31.872Z,30.90
2023-06-17T12:30:20.429Z,31.21
2023-06-17T12:33:09.031Z,31.49
2023-06-17T12:35:57.589Z,31.84
2023-06-17T12:38:46.621Z,31.91
2023-06-17T12:41:36.741Z,31.86
2023-06-17T12:44:27.026Z,31.97
2023-06-17T12:47:15.582Z,31.87
2023-06-17T12:50:04.281Z,31.94
2023-06-17T12:52:55.357Z,31.85
2023-06-17T12:55:43.884Z,31.60
2023-06-17T12:58:32.640Z,31.39
2023-06-17T13:01:22.633Z,31.00
2023-06-17T13:04:11.237Z,31.14
2023-06-17T13:06:59.810Z,31.34
2023-06-17T13:09:48.355Z,31.36
2023-06-17T13:12:36.910Z,31.05
2023-06-17T13:15:25.588Z,31.26
2023-06-17T13:18:15.859Z,31.62
2023-06-17T13:21:04.520Z,32.00
2023-06-17T13:23:53.206Z,32.05
2023-06-17T13:26:41.866Z,31.96
2023-06-17T13:29:30.669Z,32.12
2023-06-17T13:32:19.884Z,32.16
2023-06-17T13:35:10.714Z,31.86
2023-06-17T13:38:00.227Z,31.47
2023-06-17T13:40:48.846Z,31.28
2023-06-17T13:43:37.608Z,31.02
2023-06-17T13:46:26.425Z,31.04
2023-06-17T13:49:15.061Z,31.39
2023-06-17T13:52:07.978Z,31.37
2023-06-17T13:54:56.681Z,30.86
2023-06-17T13:57:45.209Z,31.44
2023-06-17T14:00:34.393Z,31.53
2023-06-17T14:03:23.198Z,31.56
2023-06-17T14:06:11.813Z,31.09
2023-06-17T14:09:05.255Z,30.37
2023-06-17T14:11:53.755Z,29.76
2023-06-17T14:14:42.337Z,30.10
2023-06-17T14:17:31.549Z,30.28
2023-06-17T14:20:20.875Z,30.64
2023-06-17T14:23:09.544Z,30.58
2023-06-17T14:25:59.433Z,30.49
2023-06-17T14:28:47.968Z,30.22
2023-06-17T14:31:36.530Z,30.15
2023-06-17T14:34:25.131Z,30.10
2023-06-17T14:37:13.781Z,30.11
2023-06-17T14:40:02.326Z,29.97
2023-06-17T14:42:52.308Z,29.87
2023-06-17T14:45:40.863Z,29.68
2023-06-17T14:48:29.509Z,29.59
2023-06-17T14:51:18.022Z,29.64
2023-06-17T14:54:06.785Z,29.86
2023-06-17T14:56:55.425Z,29.78
2023-06-17T14:59:45.631Z,30.04
2023-06-17T15:02:50.665Z,29.95
2023-06-17T15:05:39.499Z,29.86
2023-06-17T15:08:28.867Z,29.80
2023-06-17T15:11:17.896Z,29.66
2023-06-17T15:14:06.703Z,29.51
2023-06-17T15:16:57.142Z,29.57
2023-06-17T15:19:46.489Z,29.69
2023-06-17T15:22:35.089Z,30.02
2023-06-17T15:25:23.591Z,30.13
2023-06-17T15:28:12.195Z,30.38
2023-06-17T15:31:00.714Z,30.56
2023-06-17T15:33:51.070Z,30.70
2023-06-17T15:36:39.626Z,30.54
2023-06-17T15:39:29.592Z,30.42
2023-06-17T15:42:18.139Z,30.23
2023-06-17T15:45:07.644Z,29.90
2023-06-17T15:47:58.821Z,30.30
2023-06-17T15:50:49.506Z,30.43
2023-06-17T15:53:38.021Z,30.29
2023-06-17T15:56:26.686Z,30.29
2023-06-17T15:59:15.495Z,30.27
2023-06-17T16:02:04.418Z,30.17
2023-06-17T16:04:55.025Z,30.14
2023-06-17T16:07:45.110Z,29.82
2023-06-17T16:10:33.666Z,29.87
2023-06-17T16:13:22.193Z,29.89
2023-06-17T16:16:10.976Z,29.80
2023-06-17T16:18:59.520Z,29.85
2023-06-17T16:21:48.021Z,29.96
2023-06-17T16:24:38.302Z,29.80
2023-06-17T16:27:27.010Z,29.68
2023-06-17T16:30:15.964Z,29.61
2023-06-17T16:33:04.576Z,29.63
2023-06-17T16:35:53.177Z,29.52
2023-06-17T16:38:41.686Z,29.51
2023-06-17T16:41:31.774Z,29.47
2023-06-17T16:44:20.613Z,29.46
2023-06-17T16:47:09.480Z,29.41
2023-06-17T16:49:58.187Z,29.45
2023-06-17T16:52:46.741Z,29.50
2023-06-17T16:55:35.580Z,29.44
2023-06-17T16:58:25.774Z,29.40
2023-06-17T17:01:14.428Z,29.37
2023-06-17T17:04:10.536Z,29.22
2023-06-17T17:07:01.801Z,29.19
2023-06-17T17:09:50.418Z,29.18
2023-06-17T17:12:38.936Z,29.14
2023-06-17T17:15:28.880Z,29.11
2023-06-17T17:18:17.521Z,28.99
2023-06-17T17:21:06.052Z,28.74
2023-06-17T17:23:54.594Z,28.82
2023-06-17T17:26:43.129Z,28.75
2023-06-17T17:29:31.742Z,28.73
2023-06-17T17:32:23.502Z,28.78
2023-06-17T17:35:12.263Z,28.81
2023-06-17T17:38:01.110Z,28.69
2023-06-17T17:40:49.770Z,28.60
2023-06-17T17:43:38.970Z,28.49
2023-06-17T17:46:28.264Z,28.44
2023-06-17T17:49:18.273Z,28.37
2023-06-17T17:52:07.201Z,28.36
2023-06-17T17:55:02.280Z,28.29
2023-06-17T17:57:51.586Z,28.15
2023-06-17T18:00:40.109Z,27.64
2023-06-17T18:03:28.710Z,27.95
2023-06-17T18:06:19.055Z,27.89
2023-06-17T18:09:07.908Z,27.61
2023-06-17T18:11:56.384Z,27.81
2023-06-17T18:14:44.913Z,27.57
2023-06-17T18:17:33.475Z,27.54
2023-06-17T18:20:22.330Z,27.25
2023-06-17T18:23:13.755Z,27.37
2023-06-17T18:26:02.298Z,27.27
2023-06-17T18:28:50.946Z,27.14
2023-06-17T18:31:42.604Z,27.02
2023-06-17T18:34:31.102Z,26.72
2023-06-17T18:37:21.350Z,26.85
2023-06-17T18:40:12.535Z,26.75
2023-06-17T18:43:01.086Z,26.58
2023-06-17T18:45:50.127Z,26.23
2023-06-17T18:48:39.098Z,26.25
2023-06-17T18:51:27.638Z,26.01
2023-06-17T18:54:16.241Z,25.99
2023-06-17T18:57:06.606Z,25.84
2023-06-17T18:59:56.122Z,25.74
2023-06-17T19:02:44.730Z,25.59
2023-06-17T19:05:33.328Z,25.48
2023-06-17T19:08:21.955Z,25.42
2023-06-17T19:11:13.584Z,25.33
2023-06-17T19:14:03.783Z,25.23
2023-06-17T19:16:52.372Z,25.07
2023-06-17T19:19:40.999Z,24.86
2023-06-17T19:22:29.524Z,24.70
2023-06-17T19:25:18.049Z,24.48
2023-06-17T19:28:06.581Z,24.27
2023-06-17T19:30:56.451Z,24.24
2023-06-17T19:33:45.067Z,24.12
2023-06-17T19:36:33.565Z,23.87
2023-06-17T19:39:22.104Z,23.92
2023-06-17T19:42:10.626Z,23.77
2023-06-17T19:44:59.136Z,23.63
2023-06-17T19:47:49.116Z,23.55
2023-06-17T19:50:37.711Z,23.43
2023-06-17T19:53:26.280Z,23.30
2023-06-17T19:56:14.791Z,23.15
2023-06-17T19:59:04.285Z,23.02
2023-06-17T20:01:52.906Z,22.84
2023-06-17T20:04:42.807Z,22.63
2023-06-17T20:07:31.701Z,22.31
2023-06-17T20:10:20.608Z,22.45
2023-06-17T20:13:09.428Z,22.29
2023-06-17T20:15:57.993Z,22.24
2023-06-17T20:18:46.606Z,22.17
2023-06-17T20:21:36.524Z,22.12
2023-06-17T20:24:25.144Z,21.96
2023-06-17T20:27:13.745Z,21.76
2023-06-17T20:30:02.368Z,21.53
2023-06-17T20:32:51.124Z,21.35
2023-06-17T20:35:39.850Z,21.21
2023-06-17T20:38:29.955Z,21.17
2023-06-17T20:41:18.554Z,21.05
2023-06-17T20:44:07.073Z,20.92
2023-06-17T20:47:00.472Z,20.85
2023-06-17T20:49:51.010Z,20.87
2023-06-17T20:52:39.622Z,20.81
2023-06-17T20:55:31.498Z,20.74
2023-06-17T20:58:20.088Z,20.66
2023-06-17T21:01:09.569Z,20.67
2023-06-17T21:03:58.115Z,20.50
2023-06-17T21:06:46.616Z,20.47
2023-06-17T21:09:35.177Z,20.40
2023-06-17T21:12:25.029Z,20.39
2023-06-17T21:15:13.520Z,20.30
2023-06-17T21:18:02.035Z,20.28
2023-06-17T21:20:50.588Z,20.19
2023-06-17T21:23:39.121Z,20.04
2023-06-17T21:26:28.067Z,20.06
2023-06-17T21:29:18.092Z,20.05
2023-06-17T21:32:07.590Z,19.99
2023-06-17T21:34:56.227Z,19.89
2023-06-17T21:37:44.756Z,19.95
2023-06-17T21:40:33.497Z,19.88
2023-06-17T21:43:22.063Z,19.85
2023-06-17T21:46:12.144Z,19.82
2023-06-17T21:49:00.901Z,19.77
2023-06-17T21:51:50.002Z,19.69
2023-06-17T21:54:38.662Z,19.43
2023-06-17T21:57:30.254Z,19.66
2023-06-17T22:00:19.988Z,19.70
2023-06-17T22:03:10.120Z,19.69
2023-06-17T22:05:58.845Z,19.69
2023-06-17T22:08:47.391Z,19.57
2023-06-17T22:11:35.917Z,19.58
2023-06-17T22:14:24.477Z,19.60
2023-06-17T22:17:13.069Z,19.54
2023-06-17T22:20:03.814Z,19.54
2023-06-17T22:22:52.320Z,19.53
2023-06-17T22:25:40.897Z,19.54
2023-06-17T22:28:29.441Z,19.47
2023-06-17T22:31:17.993Z,19.45
2023-06-17T22:34:06.512Z,19.35
2023-06-17T22:36:59.773Z,19.37
2023-06-17T22:39:48.339Z,19.25
2023-06-17T22:42:36.876Z,19.30
2023-06-17T22:45:25.407Z,19.27
2023-06-17T22:48:13.953Z,19.27
2023-06-17T22:51:02.830Z,19.24
2023-06-17T22:53:52.981Z,19.24
2023-06-17T22:56:42.308Z,19.27
2023-06-17T22:59:30.825Z,19.19
2023-06-17T23:02:19.417Z,19.17
2023-06-17T23:05:08.413Z,19.10
2023-06-17T23:07:56.980Z,19.00
2023-06-17T23:10:47.153Z,18.91
2023-06-17T23:13:35.737Z,18.67
2023-06-17T23:16:24.349Z,18.81
2023-06-17T23:19:12.913Z,18.75
2023-06-17T23:22:01.528Z,18.68
2023-06-17T23:24:50.063Z,18.62
2023-06-17T23:27:41.585Z,18.54
2023-06-17T23:30:30.232Z,18.44
2023-06-17T23:33:19.244Z,18.48
2023-06-17T23:36:08.801Z,18.31
2023-06-17T23:38:58.459Z,18.35
2023-06-17T23:41:47.045Z,18.27
2023-06-17T23:44:36.922Z,18.28
2023-06-17T23:47:25.481Z,18.20
2023-06-17T23:50:14.072Z,18.18
2023-06-17T23:53:02.582Z,18.15
2023-06-17T23:55:51.258Z,18.21
2023-06-17T23:58:39.940Z,18.06
